EDT,Max TemperatureF,Mean TemperatureF,Min TemperatureF,Max Dew PointF,MeanDew PointF,Min DewpointF,Max Humidity, Mean Humidity, Min Humidity, Max Sea Level PressureIn, Mean Sea Level PressureIn, Min Sea Level PressureIn, Max VisibilityMiles, Mean VisibilityMiles, Min VisibilityMiles, Max Wind SpeedMPH, Mean Wind SpeedMPH, Max Gust SpeedMPH,PrecipitationIn, CloudCover, Events, WindDirDegrees
2012-3-1,38,36,33,36,33,31,100,93,85,29.92,29.74,29.54,10,6,1,22,6,26,0.41,8,Rain-Snow,95
2012-3-2,49,41,32,36,33,30,92,73,53,29.98,29.88,29.52,10,7,2,20,9,27,0.16,7,Rain,154
2012-3-3,52,45,38,41,29,18,82,57,32,29.55,29.45,29.32,10,10,10,28,19,46,T,6,,234
2012-3-4,39,31,23,28,22,16,92,70,48,29.81,29.67,29.55,10,6,0,17,12,25,0.07,7,Snow,285
2012-3-5,25,20,15,15,12,8,84,69,54,30.42,30.12,29.83,10,6,1,17,10,25,0.03,6,Snow,299
2012-3-6,43,32,20,19,17,12,74,45,16,30.59,30.48,30.34,10,10,7,13,6,20,T,6,Snow,191
2012-3-7,68,51,33,30,26,19,54,35,24,30.32,30.21,30.08,10,10,10,23,13,30,0.00,5,,204
2012-3-8,62,48,33,50,38,31,96,65,33,30.08,29.89,29.72,10,8,2,29,17,39,0.40,8,Rain-Snow,266
2012-3-9,37,31,25,32,26,15,96,75,53,30.29,30.13,29.99,10,4,0,32,13,43,0.11,7,Fog-Snow,291
2012-3-10,32,27,22,21,19,14,88,71,54,30.56,30.42,30.28,10,6,1,25,10,33,0.02,7,Snow,291
2012-3-11,66,45,24,31,25,18,81,53,24,30.35,30.28,30.22,10,10,10,22,6,26,0.00,1,,230
2012-3-12,68,50,32,36,32,28,82,54,26,30.26,30.16,29.96,10,10,10,21,6,36,0.00,6,,139
2012-3-13,68,58,48,55,46,36,86,63,39,30.00,29.91,29.85,10,10,8,25,12,32,0.01,6,Rain,269
2012-3-14,60,49,38,39,31,20,85,53,20,30.19,30.13,30.01,10,10,10,21,9,28,0.00,1,,302
2012-3-15,64,50,36,45,36,28,86,66,46,30.20,30.14,30.07,10,10,10,24,9,29,T,4,Rain-Thunderstorm,106
2012-3-16,62,54,45,55,48,41,100,90,80,30.24,30.10,30.02,10,5,1,15,5,17,0.49,8,Rain-Thunderstorm,58
2012-3-17,68,57,46,48,46,44,100,74,48,30.32,30.25,30.19,10,8,2,10,4,14,0.00,6,,109
2012-3-18,80,61,41,59,49,40,89,63,36,30.22,30.15,30.07,10,10,9,17,4,20,T,3,Rain,119
2012-3-19,79,66,53,58,55,52,93,69,45,30.18,30.13,30.09,10,10,7,14,2,17,T,7,Rain-Thunderstorm,145
2012-3-20,79,65,51,57,53,50,100,72,43,30.25,30.20,30.16,10,10,6,12,4,20,0.00,3,Fog,184
2012-3-21,81,65,49,55,51,46,96,68,39,30.30,30.23,30.16,10,10,10,13,3,18,0.00,1,,118
2012-3-22,78,65,51,54,53,50,93,67,40,30.21,30.14,30.08,10,10,9,13,4,18,0.00,3,,325
2012-3-23,71,62,52,54,44,35,96,64,31,30.17,30.11,30.06,10,9,6,16,4,21,0.00,7,Fog,68
2012-3-24,58,53,48,39,33,27,66,51,35,30.05,29.98,29.91,10,10,10,17,11,23,0.07,8,Rain,105
2012-3-25,52,48,44,48,45,42,100,89,77,29.90,29.83,29.78,10,8,2,18,6,23,0.04,7,Rain,71
2012-3-26,51,40,28,48,22,3,83,55,26,30.27,30.01,29.78,10,10,9,29,18,37,T,5,Snow,342
2012-3-27,44,32,20,17,8,1,56,39,22,30.40,30.27,30.00,10,10,10,15,7,20,0.00,3,,26
2012-3-28,66,53,39,44,35,12,83,54,25,29.94,29.68,29.50,10,10,7,26,11,33,0.10,7,Rain,52
2012-3-29,42,40,37,38,34,23,92,73,54,30.08,29.89,29.70,10,10,6,20,12,25,0.05,8,Rain,334
2012-3-30,47,38,28,33,19,12,69,47,25,30.14,30.05,29.95,10,10,10,15,6,18,T,6,Rain,39
2012-3-31,44,40,36,34,32,30,82,75,67,29.94,29.91,29.86,10,10,10,16,6,22,T,8,Rain-Snow,99